Time;durP1;ratioP1;P1;durP2;ratioP2;P2;SDS_P1;SDS_P2;PMS_P1;PMS_P2;Temp;Humidity;BMP_temperature;BMP_pressure;BME280_temperature;BME280_humidity;BME280_pressure;Samples;Min_cycle;Max_cycle;Signal;HPM_P1;HPM_P2
2023/02/05 00:00:44;;;;;;;4.20;3.80;;;;;;;1.63;81.32;103015.97;5020218;28;20198;-81
2023/02/05 00:03:10;;;;;;;4.20;3.70;;;;;;;1.62;80.56;103015.06;5022338;28;20624;-81
2023/02/05 00:05:37;;;;;;;3.63;3.33;;;;;;;1.63;80.97;103014.28;5017854;28;20280;-83
2023/02/05 00:08:03;;;;;;;3.87;3.57;;;;;;;1.65;81.65;103004.94;5024454;28;20227;-82
2023/02/05 00:10:29;;;;;;;5.07;4.53;;;;;;;1.64;81.46;103002.28;5032847;28;20202;-82
2023/02/05 00:12:56;;;;;;;4.10;3.80;;;;;;;1.65;81.65;102996.34;5024829;28;20248;-82
2023/02/05 00:15:23;;;;;;;4.73;4.33;;;;;;;1.65;81.34;102993.78;5022889;28;20212;-82
2023/02/05 00:17:50;;;;;;;5.07;4.57;;;;;;;1.60;81.03;102996.06;5025826;28;20217;-84
2023/02/05 00:20:16;;;;;;;5.03;4.63;;;;;;;1.51;81.06;102986.13;5027921;28;20256;-84
2023/02/05 00:22:43;;;;;;;5.00;4.60;;;;;;;1.53;81.54;102981.94;5026262;28;20253;-84
2023/02/05 00:25:09;;;;;;;4.67;4.13;;;;;;;1.53;81.08;102979.38;5026167;28;20244;-83
2023/02/05 00:27:35;;;;;;;4.73;4.33;;;;;;;1.47;81.77;102968.72;5025602;28;20815;-87
2023/02/05 00:30:02;;;;;;;5.23;4.47;;;;;;;1.46;82.02;102972.06;5023277;28;20198;-84
2023/02/05 00:32:29;;;;;;;5.00;4.60;;;;;;;1.43;82.32;102963.28;5024919;28;20206;-83
2023/02/05 00:34:56;;;;;;;5.30;4.80;;;;;;;1.39;82.25;102957.09;5025130;28;20198;-83
2023/02/05 00:37:22;;;;;;;4.83;4.43;;;;;;;1.34;82.02;102953.34;5030631;28;20325;-83
2023/02/05 00:39:48;;;;;;;4.53;4.00;;;;;;;1.41;81.84;102946.84;5026648;28;20280;-83
2023/02/05 00:42:15;;;;;;;4.70;4.30;;;;;;;1.39;82.19;102959.66;5028777;28;20199;-84
2023/02/05 00:44:41;;;;;;;4.53;4.13;;;;;;;1.34;82.11;102943.06;5027063;28;20257;-83
2023/02/05 00:47:07;;;;;;;4.13;3.83;;;;;;;1.30;82.09;102934.25;5026643;28;20227;-83
2023/02/05 00:49:35;;;;;;;4.43;3.97;;;;;;;1.32;81.74;102924.94;5028903;28;20292;-83
2023/02/05 00:52:02;;;;;;;5.13;4.63;;;;;;;1.30;81.63;102912.78;5027193;28;20569;-85
2023/02/05 00:54:28;;;;;;;5.07;4.57;;;;;;;1.27;81.70;102902.31;5027941;28;20205;-82
2023/02/05 00:56:54;;;;;;;4.60;4.20;;;;;;;1.32;82.13;102904.34;5028758;28;20242;-82
2023/02/05 00:59:21;;;;;;;5.43;4.17;;;;;;;1.28;82.26;102902.41;5031191;28;20252;-82
2023/02/05 01:01:47;;;;;;;4.50;4.20;;;;;;;1.27;81.65;102902.31;5037623;28;20246;-81
2023/02/05 01:04:13;;;;;;;5.10;4.67;;;;;;;1.25;82.03;102891.94;5037784;28;20231;-82
2023/02/05 01:06:41;;;;;;;4.70;4.30;;;;;;;1.21;82.12;102889.09;5037891;28;20209;-82
2023/02/05 01:09:08;;;;;;;4.90;4.47;;;;;;;1.18;82.38;102884.66;5037470;28;20210;-82
2023/02/05 01:11:34;;;;;;;4.90;4.43;;;;;;;1.18;82.44;102882.97;5038209;28;20210;-83
2023/02/05 01:14:01;;;;;;;4.90;4.43;;;;;;;1.19;82.27;102882.19;5038478;28;20289;-83
2023/02/05 01:16:27;;;;;;;4.90;4.50;;;;;;;1.18;82.12;102877.81;5039786;28;20217;-83
2023/02/05 01:18:55;;;;;;;5.07;4.43;;;;;;;1.13;82.14;102878.34;5057416;28;20799;-82
2023/02/05 01:21:23;;;;;;;4.30;3.90;;;;;;;1.16;81.85;102870.81;5058904;28;20206;-82
2023/02/05 01:23:53;;;;;;;4.43;3.90;;;;;;;1.17;81.85;102872.59;5058823;28;20218;-83
2023/02/05 01:26:19;;;;;;;3.83;3.53;;;;;;;1.15;81.78;102872.50;5058966;28;20592;-82
2023/02/05 01:28:47;;;;;;;4.23;3.83;;;;;;;1.06;82.23;102864.25;5058638;28;20712;-83
2023/02/05 01:31:13;;;;;;;4.50;3.67;;;;;;;1.11;81.71;102849.06;5058359;28;20209;-82
2023/02/05 01:33:40;;;;;;;5.27;4.17;;;;;;;1.12;82.54;102841.44;5058980;28;20205;-83
2023/02/05 01:36:06;;;;;;;4.57;3.50;;;;;;;1.15;82.54;102844.22;5059000;28;20260;-82
2023/02/05 01:38:33;;;;;;;3.53;3.23;;;;;;;1.16;81.52;102835.69;5058774;28;20625;-83
2023/02/05 01:41:01;;;;;;;4.20;3.00;;;;;;;1.14;82.20;102841.53;5058776;28;20208;-83
2023/02/05 01:43:27;;;;;;;3.43;3.13;;;;;;;1.18;81.54;102846.94;5058634;28;20314;-83
2023/02/05 01:46:18;;;;;;;3.53;3.23;;;;;;;1.10;81.86;102852.47;5056063;28;20233;-82
2023/02/05 01:48:48;;;;;;;5.63;3.40;;;;;;;1.13;81.24;102857.75;5045976;28;20229;-81
2023/02/05 01:51:15;;;;;;;3.20;3.00;;;;;;;1.07;81.56;102857.41;5038855;28;20621;-83
2023/02/05 01:53:43;;;;;;;3.53;3.23;;;;;;;1.08;82.48;102867.78;5038858;28;20292;-82
2023/02/05 01:56:14;;;;;;;3.13;2.83;;;;;;;1.06;82.04;102861.66;5038497;28;20206;-82
2023/02/05 01:58:51;;;;;;;5.43;3.27;;;;;;;1.11;82.42;102855.13;5039395;28;20237;-82
2023/02/05 02:01:18;;;;;;;3.57;2.97;;;;;;;1.05;82.31;102844.47;5039549;28;20215;-82
2023/02/05 02:03:45;;;;;;;4.50;2.73;;;;;;;1.04;81.74;102839.25;5039048;28;20210;-82
2023/02/05 02:06:12;;;;;;;3.10;2.80;;;;;;;0.99;81.94;102816.72;5038893;28;20584;-83
2023/02/05 02:08:38;;;;;;;3.63;2.87;;;;;;;1.04;82.09;102824.69;5039045;28;20233;-83
2023/02/05 02:11:07;;;;;;;3.40;3.10;;;;;;;1.02;81.14;102820.25;5039074;28;20681;-83
2023/02/05 02:13:36;;;;;;;3.43;3.17;;;;;;;1.02;81.27;102818.56;5039388;28;20206;-82
2023/02/05 02:16:03;;;;;;;2.90;2.70;;;;;;;0.97;81.45;102825.09;5048862;28;20216;-82
2023/02/05 02:18:32;;;;;;;3.50;3.20;;;;;;;0.95;81.25;102826.72;5059927;28;20723;-82
2023/02/05 02:21:28;;;;;;;3.90;3.53;;;;;;;0.94;81.62;102822.38;5056894;28;20233;-82
2023/02/05 02:24:22;;;;;;;3.60;2.80;;;;;;;0.84;81.71;102809.78;5057622;28;20757;-83
2023/02/05 02:27:05;;;;;;;2.50;2.30;;;;;;;0.89;81.60;102808.34;5054284;28;20723;-80
2023/02/05 02:29:38;;;;;;;3.50;2.70;;;;;;;0.86;81.58;102797.91;5057111;28;20232;-82
2023/02/05 02:32:14;;;;;;;2.60;2.40;;;;;;;0.91;82.06;102804.19;5057343;28;20629;-83
2023/02/05 02:34:46;;;;;;;2.93;2.50;;;;;;;0.91;81.65;102788.75;5056931;28;20672;-82
2023/02/05 02:37:22;;;;;;;3.10;2.90;;;;;;;0.87;81.51;102784.22;5057297;28;20222;-82
2023/02/05 02:39:57;;;;;;;3.23;2.37;;;;;;;0.85;82.52;102786.72;5056807;28;20264;-82
2023/02/05 02:42:30;;;;;;;3.47;3.03;;;;;;;0.88;81.76;102780.88;5057338;28;20244;-83
2023/02/05 02:45:00;;;;;;;2.27;2.07;;;;;;;0.90;81.28;102790.44;5057397;28;20229;-83
2023/02/05 02:47:37;;;;;;;2.80;2.30;;;;;;;0.95;81.36;102783.91;5039587;28;20803;-83
2023/02/05 02:50:10;;;;;;;3.93;2.40;;;;;;;0.82;81.08;102795.94;5057706;28;20251;-81
2023/02/05 02:52:42;;;;;;;2.80;2.60;;;;;;;0.84;81.05;102808.09;5057190;28;20671;-83
2023/02/05 02:55:12;;;;;;;2.40;2.20;;;;;;;0.92;81.28;102799.13;5057389;28;20209;-83
2023/02/05 02:57:40;;;;;;;2.23;1.93;;;;;;;0.98;80.54;102798.63;5057416;28;20241;-81
2023/02/05 03:00:13;;;;;;;2.77;2.57;;;;;;;0.96;80.79;102815.63;5056890;28;20674;-82
2023/02/05 03:02:43;;;;;;;2.50;2.30;;;;;;;0.96;81.18;102805.34;5057361;28;20209;-82
2023/02/05 03:05:16;;;;;;;3.93;2.70;;;;;;;0.92;81.05;102799.13;5056915;28;20229;-83
2023/02/05 03:07:45;;;;;;;2.40;2.20;;;;;;;0.94;81.37;102788.94;5057237;28;20222;-84
2023/02/05 03:10:18;;;;;;;2.47;2.27;;;;;;;0.87;81.50;102797.97;5057062;28;20205;-81
2023/02/05 03:12:45;;;;;;;3.40;2.43;;;;;;;0.89;81.86;102800.63;5056517;28;20587;-84
2023/02/05 03:15:13;;;;;;;2.57;2.37;;;;;;;0.91;81.93;102788.75;5054407;28;20272;-82
2023/02/05 03:17:41;;;;;;;2.30;2.10;;;;;;;0.89;81.96;102773.25;5040360;28;20234;-82
2023/02/05 03:20:11;;;;;;;2.40;2.20;;;;;;;0.90;82.34;102761.28;5056816;28;20644;-80
2023/02/05 03:22:37;;;;;;;2.40;2.20;;;;;;;0.84;82.59;102771.22;5056819;28;20217;-82
2023/02/05 03:25:05;;;;;;;3.50;2.40;;;;;;;0.86;82.62;102761.91;5057019;28;20583;-83
2023/02/05 03:27:33;;;;;;;2.33;2.13;;;;;;;0.88;81.88;102753.47;5056262;28;20768;-84
2023/02/05 03:30:00;;;;;;;2.73;2.53;;;;;;;0.88;81.99;102757.75;5056848;28;20201;-81
2023/02/05 03:32:42;;;;;;;2.87;2.67;;;;;;;0.80;82.36;102759.88;5056829;28;20228;-83
2023/02/05 03:35:22;;;;;;;2.17;2.03;;;;;;;0.77;82.73;102751.97;5056995;28;20216;-83
2023/02/05 03:38:00;;;;;;;3.07;2.67;;;;;;;0.79;81.89;102742.66;5056596;28;20226;-83
2023/02/05 03:40:34;;;;;;;3.53;2.40;;;;;;;0.77;82.53;102744.25;5056416;28;20557;-83
2023/02/05 03:43:10;;;;;;;2.90;2.30;;;;;;;0.69;83.01;102737.78;5056453;28;20204;-82
2023/02/05 03:45:46;;;;;;;4.93;2.63;;;;;;;0.67;83.33;102723.94;5053440;28;20229;-83
2023/02/05 03:48:34;;;;;;;3.80;2.43;;;;;;;0.59;84.02;102721.84;5040340;28;20226;-83
2023/02/05 03:51:16;;;;;;;2.47;2.20;;;;;;;0.59;84.30;102688.44;5034602;28;20221;-83
2023/02/05 03:53:53;;;;;;;2.10;2.00;;;;;;;0.68;83.95;102677.78;5037317;28;20206;-84
2023/02/05 03:56:23;;;;;;;2.40;2.20;;;;;;;0.68;84.44;102676.91;5036078;28;20217;-82
2023/02/05 03:58:54;;;;;;;2.60;2.10;;;;;;;0.66;84.42;102668.22;5036932;28;20241;-81
2023/02/05 04:01:22;;;;;;;2.50;2.30;;;;;;;0.71;84.12;102659.06;5036850;28;20221;-84
2023/02/05 04:03:50;;;;;;;2.40;2.20;;;;;;;0.68;84.35;102656.34;5037306;28;20215;-83
2023/02/05 04:06:16;;;;;;;2.73;2.43;;;;;;;0.70;84.44;102652.19;5036959;28;20226;-82
2023/02/05 04:08:43;;;;;;;2.33;1.90;;;;;;;0.66;84.89;102638.25;5045345;28;20229;-83
2023/02/05 04:11:10;;;;;;;3.83;2.20;;;;;;;0.70;85.03;102634.19;5036919;28;20212;-83
2023/02/05 04:13:36;;;;;;;2.10;2.00;;;;;;;0.74;84.49;102626.72;5036918;28;20206;-83
2023/02/05 04:16:03;;;;;;;3.20;2.07;;;;;;;0.79;85.16;102622.75;5036564;28;20206;-84
2023/02/05 04:18:30;;;;;;;3.13;2.37;;;;;;;0.75;84.96;102620.81;5036690;28;20305;-83
2023/02/05 04:20:59;;;;;;;2.70;2.13;;;;;;;0.83;84.71;102623.78;5036707;28;20586;-83
2023/02/05 04:23:26;;;;;;;2.10;1.90;;;;;;;0.98;83.39;102639.19;5034045;28;20654;-82
2023/02/05 04:25:53;;;;;;;2.33;1.90;;;;;;;1.02;83.03;102673.69;5033412;28;20755;-81
2023/02/05 04:28:20;;;;;;;1.73;1.63;;;;;;;1.05;81.75;102700.47;5033217;28;20265;-81
2023/02/05 04:30:47;;;;;;;2.37;2.17;;;;;;;1.10;82.26;102713.56;5032415;28;20217;-82
2023/02/05 04:33:13;;;;;;;2.60;2.27;;;;;;;1.18;80.81;102727.75;5033043;28;20213;-81
2023/02/05 04:35:39;;;;;;;2.37;1.87;;;;;;;1.25;81.02;102739.25;5043967;28;20251;-82
2023/02/05 04:38:07;;;;;;;3.30;1.70;;;;;;;1.26;81.18;102756.47;5037966;28;20241;-81
2023/02/05 04:40:34;;;;;;;2.23;2.03;;;;;;;1.30;81.20;102766.13;5032789;28;20358;-81
2023/02/05 04:43:00;;;;;;;1.83;1.73;;;;;;;1.29;81.08;102756.63;5032902;28;20767;-82
2023/02/05 04:45:29;;;;;;;2.07;1.80;;;;;;;1.26;81.23;102774.47;5033053;28;20671;-82
2023/02/05 04:47:56;;;;;;;1.67;1.50;;;;;;;1.32;81.35;102778.28;5033277;28;20230;-81
2023/02/05 04:50:24;;;;;;;1.77;1.57;;;;;;;1.31;80.25;102781.66;5032762;28;20213;-81
2023/02/05 04:52:50;;;;;;;1.97;1.87;;;;;;;1.36;80.15;102792.22;5054669;28;20217;-81
2023/02/05 04:55:18;;;;;;;2.50;1.80;;;;;;;1.34;79.45;102804.09;5057073;28;20297;-83
2023/02/05 04:57:45;;;;;;;1.90;1.40;;;;;;;1.37;79.79;102807.75;5056638;28;20241;-82
2023/02/05 05:00:13;;;;;;;1.70;1.53;;;;;;;1.46;80.15;102803.91;5056608;28;20210;-81
2023/02/05 05:02:39;;;;;;;2.07;1.80;;;;;;;1.50;79.13;102817.03;5055830;28;20645;-82
2023/02/05 05:05:06;;;;;;;2.43;1.67;;;;;;;1.48;79.71;102818.63;5056921;28;20223;-83
2023/02/05 05:07:32;;;;;;;3.03;1.40;;;;;;;1.52;79.20;102812.84;5056715;28;20224;-82
2023/02/05 05:09:59;;;;;;;1.73;1.40;;;;;;;1.58;79.28;102812.31;5056508;28;20205;-82
2023/02/05 05:12:27;;;;;;;1.67;1.43;;;;;;;1.64;80.21;102810.09;5056963;28;20204;-82
2023/02/05 05:14:53;;;;;;;1.97;1.50;;;;;;;1.62;80.47;102801.41;5058159;28;20219;-83
2023/02/05 05:17:20;;;;;;;1.33;1.23;;;;;;;1.63;80.83;102792.00;5057927;28;20232;-81
2023/02/05 05:19:46;;;;;;;1.60;1.50;;;;;;;1.63;80.59;102774.88;5055219;28;20198;-82
2023/02/05 05:22:12;;;;;;;2.00;1.50;;;;;;;1.61;80.95;102770.44;5042726;28;20207;-81
2023/02/05 05:24:39;;;;;;;1.50;1.40;;;;;;;1.54;82.32;102744.34;5038331;28;20214;-81
2023/02/05 05:27:05;;;;;;;1.60;1.47;;;;;;;1.55;82.23;102728.09;5038365;28;20245;-81
2023/02/05 05:29:33;;;;;;;1.40;1.30;;;;;;;1.47;83.00;102707.91;5038125;28;20210;-82
2023/02/05 05:32:00;;;;;;;1.30;1.20;;;;;;;1.52;83.15;102691.00;5038485;28;20256;-82
2023/02/05 05:34:26;;;;;;;5.47;1.27;;;;;;;1.49;83.20;102688.28;5038784;28;20206;-83
2023/02/05 05:36:53;;;;;;;3.07;1.97;;;;;;;1.49;83.11;102686.59;5038487;28;20226;-83
2023/02/05 05:44:51;;;;;;;1.30;1.10;;;;;;;1.49;83.14;102667.69;5038098;28;20256;-81
2023/02/05 05:47:17;;;;;;;3.50;1.10;;;;;;;1.50;83.27;102649.75;5038311;28;20261;-81
2023/02/05 05:49:44;;;;;;;2.13;1.10;;;;;;;1.51;84.11;102641.25;5048545;28;20207;-82
2023/02/05 05:52:10;;;;;;;1.73;1.10;;;;;;;1.52;84.56;102629.25;5039172;28;20268;-82
2023/02/05 05:54:37;;;;;;;1.63;1.30;;;;;;;1.50;84.13;102616.28;5038712;28;20294;-81
2023/02/05 05:57:04;;;;;;;1.03;1.00;;;;;;;1.53;84.68;102603.59;5050409;28;20233;-80
2023/02/05 05:59:30;;;;;;;1.20;1.10;;;;;;;1.51;84.10;102596.63;5049440;28;20290;-83
2023/02/05 06:01:58;;;;;;;0.80;0.80;;;;;;;1.54;84.21;102601.91;5058025;28;20205;-82
2023/02/05 06:04:25;;;;;;;1.30;1.20;;;;;;;1.53;83.91;102593.31;5057839;28;20205;-83
2023/02/05 06:06:51;;;;;;;2.10;1.40;;;;;;;1.50;83.43;102595.69;5058410;28;20707;-83
2023/02/05 06:09:20;;;;;;;1.70;1.43;;;;;;;1.54;82.24;102617.34;5058480;28;20205;-82
2023/02/05 06:11:46;;;;;;;1.37;1.10;;;;;;;1.57;82.67;102630.38;5057638;28;20232;-84
2023/02/05 06:14:13;;;;;;;1.17;1.17;;;;;;;1.61;82.42;102616.88;5058278;28;20209;-84
2023/02/05 06:16:40;;;;;;;1.87;1.20;;;;;;;1.56;81.41;102626.03;5057999;28;20209;-84
2023/02/05 06:19:07;;;;;;;1.10;1.00;;;;;;;1.57;81.14;102649.28;5059042;28;20263;-83
2023/02/05 06:21:34;;;;;;;2.90;1.57;;;;;;;1.56;81.35;102657.78;5059700;28;20255;-83
2023/02/05 06:24:00;;;;;;;1.47;1.30;;;;;;;1.62;81.81;102672.69;5059791;28;20626;-82
2023/02/05 06:26:26;;;;;;;1.50;1.20;;;;;;;1.64;80.78;102667.63;5052334;28;20658;-83
2023/02/05 06:28:55;;;;;;;2.30;1.60;;;;;;;1.66;80.54;102671.16;5042708;28;20284;-81
2023/02/05 06:31:23;;;;;;;1.43;1.33;;;;;;;1.70;81.03;102665.38;5038082;28;20764;-81
2023/02/05 06:33:49;;;;;;;1.40;1.30;;;;;;;1.73;80.31;102673.28;5038941;28;20207;-81
2023/02/05 06:36:17;;;;;;;1.53;1.10;;;;;;;1.77;80.13;102668.38;5038526;28;20689;-82
2023/02/05 06:38:43;;;;;;;3.27;1.13;;;;;;;1.75;82.22;102657.09;5037760;28;20227;-83
2023/02/05 06:41:09;;;;;;;1.20;1.10;;;;;;;1.79;81.63;102630.72;5037760;28;20207;-84
2023/02/05 06:43:36;;;;;;;1.77;1.27;;;;;;;1.74;82.64;102605.53;5037870;28;20199;-83
2023/02/05 06:46:02;;;;;;;3.13;1.33;;;;;;;1.68;82.18;102595.78;5037787;28;20234;-82
2023/02/05 06:48:29;;;;;;;1.70;1.40;;;;;;;1.74;82.65;102592.66;5037773;28;20249;-84
2023/02/05 06:50:55;;;;;;;2.07;1.60;;;;;;;1.68;82.50;102603.50;5037552;28;20203;-82
2023/02/05 06:53:23;;;;;;;2.67;1.87;;;;;;;1.80;81.41;102626.44;5038388;28;20206;-83
2023/02/05 06:55:49;;;;;;;1.90;1.70;;;;;;;1.87;81.29;102656.88;5036960;28;20207;-83
2023/02/05 06:58:15;;;;;;;2.17;1.80;;;;;;;1.92;80.64;102675.13;5037707;28;20238;-82
2023/02/05 07:00:45;;;;;;;1.80;1.43;;;;;;;1.84;77.72;102725.34;5038025;28;20222;-84
2023/02/05 07:03:11;;;;;;;3.43;1.77;;;;;;;1.93;78.93;102742.16;5038190;28;20270;-83
2023/02/05 07:05:37;;;;;;;1.90;1.73;;;;;;;2.00;79.01;102743.38;5037617;28;20206;-82
2023/02/05 07:08:05;;;;;;;1.70;1.50;;;;;;;1.93;79.47;102741.28;5038166;28;20226;-81
2023/02/05 07:10:33;;;;;;;2.37;2.00;;;;;;;1.96;79.82;102732.03;5039422;28;20269;-82
2023/02/05 07:12:59;;;;;;;2.13;2.03;;;;;;;1.92;79.66;102726.63;5037781;28;20263;-81
2023/02/05 07:15:26;;;;;;;1.93;1.47;;;;;;;1.96;79.81;102726.91;5036663;28;20214;-80
2023/02/05 07:17:52;;;;;;;1.97;1.53;;;;;;;2.02;80.26;102720.28;5038678;28;20234;-81
2023/02/05 07:20:18;;;;;;;1.57;1.47;;;;;;;1.98;80.46;102707.25;5039617;28;20204;-80
2023/02/05 07:22:45;;;;;;;2.50;1.37;;;;;;;1.94;81.47;102686.38;5040132;28;20214;-82
2023/02/05 07:25:12;;;;;;;1.97;1.20;;;;;;;1.90;81.40;102669.00;5038189;28;20210;-81
2023/02/05 07:27:40;;;;;;;1.43;1.30;;;;;;;1.91;81.33;102656.22;5037617;28;20256;-82
2023/02/05 07:30:07;;;;;;;2.17;1.27;;;;;;;1.93;82.03;102649.44;5037993;28;20238;-81
2023/02/05 07:32:33;;;;;;;1.30;1.20;;;;;;;1.91;82.77;102640.75;5038008;28;20208;-83
2023/02/05 07:35:00;;;;;;;3.80;2.33;;;;;;;1.99;82.55;102625.72;5039270;28;20207;-83
2023/02/05 07:37:26;;;;;;;1.70;1.50;;;;;;;2.02;82.19;102636.16;5039891;28;20720;-83
2023/02/05 07:39:52;;;;;;;2.07;1.40;;;;;;;1.98;81.93;102629.06;5038981;28;20265;-82
2023/02/05 07:42:19;;;;;;;1.90;1.30;;;;;;;2.05;82.27;102617.41;5037419;28;20256;-82
2023/02/05 07:44:47;;;;;;;1.13;1.03;;;;;;;2.06;83.08;102599.47;5038755;28;20280;-82
2023/02/05 07:47:13;;;;;;;1.17;1.00;;;;;;;2.03;83.91;102578.69;5038381;28;20235;-82
2023/02/05 07:49:39;;;;;;;1.40;1.17;;;;;;;2.07;83.97;102557.44;5038608;28;20225;-81
2023/02/05 07:52:07;;;;;;;1.47;1.37;;;;;;;2.07;83.13;102552.28;5038897;28;20634;-82
2023/02/05 07:54:33;;;;;;;1.60;1.50;;;;;;;2.12;83.06;102560.22;5039742;28;20669;-81
2023/02/05 07:57:01;;;;;;;2.33;1.60;;;;;;;2.10;82.37;102569.56;5058379;28;20738;-82
2023/02/05 07:59:28;;;;;;;2.30;1.60;;;;;;;2.11;82.89;102561.94;5056865;28;20272;-82
2023/02/05 08:01:55;;;;;;;1.63;1.50;;;;;;;2.20;82.82;102556.38;5057390;28;20209;-80
2023/02/05 08:04:22;;;;;;;1.90;1.70;;;;;;;2.30;81.67;102570.56;5057231;28;20213;-81
2023/02/05 08:06:48;;;;;;;1.70;1.60;;;;;;;2.33;80.99;102599.06;5056883;28;20542;-80
2023/02/05 08:09:15;;;;;;;1.23;1.13;;;;;;;2.38;80.90;102616.53;5057131;28;20692;-82
2023/02/05 08:11:42;;;;;;;2.23;1.80;;;;;;;2.46;81.02;102618.59;5056882;28;20229;-81
2023/02/05 08:14:08;;;;;;;2.13;1.70;;;;;;;2.49;79.56;102644.53;5057037;28;20263;-82
2023/02/05 08:16:34;;;;;;;2.27;2.07;;;;;;;2.48;80.22;102674.59;5056605;28;20202;-83
2023/02/05 08:19:02;;;;;;;2.63;1.70;;;;;;;2.56;80.56;102667.25;5056679;28;20209;-82
2023/02/05 08:21:28;;;;;;;2.97;2.17;;;;;;;2.62;80.67;102657.22;5056938;28;20204;-82
2023/02/05 08:23:57;;;;;;;4.63;2.87;;;;;;;2.68;80.99;102651.50;5038272;28;20267;-81
2023/02/05 08:26:26;;;;;;;4.67;3.13;;;;;;;2.76;80.81;102663.06;5037261;28;20226;-80
2023/02/05 08:28:52;;;;;;;4.10;2.53;;;;;;;2.73;79.80;102676.69;5059776;28;20233;-82
2023/02/05 08:31:19;;;;;;;2.60;2.30;;;;;;;2.75;79.21;102698.25;5059723;28;20262;-82
2023/02/05 08:33:46;;;;;;;2.70;2.03;;;;;;;2.56;77.43;102709.38;5059697;28;20205;-83
2023/02/05 08:36:14;;;;;;;3.00;2.03;;;;;;;2.66;78.50;102749.41;5059924;28;20237;-84
2023/02/05 08:38:41;;;;;;;4.50;2.60;;;;;;;2.76;78.31;102740.44;5059938;28;20272;-84
2023/02/05 08:41:11;;;;;;;3.27;2.17;;;;;;;2.82;79.22;102729.56;5059098;28;20205;-85
2023/02/05 08:43:39;;;;;;;2.00;1.80;;;;;;;2.86;78.90;102727.19;5051892;28;20201;-84
2023/02/05 08:46:05;;;;;;;2.30;2.10;;;;;;;2.94;79.43;102727.56;5061858;28;20296;-82
2023/02/05 08:48:32;;;;;;;2.80;1.67;;;;;;;2.93;78.68;102744.75;5062255;28;20231;-83
2023/02/05 08:50:58;;;;;;;2.30;1.90;;;;;;;2.93;78.53;102747.31;5061023;28;20209;-84
2023/02/05 08:53:26;;;;;;;3.23;2.00;;;;;;;2.92;78.06;102753.28;5056440;28;20202;-84
2023/02/05 08:55:55;;;;;;;3.47;2.10;;;;;;;2.95;78.38;102755.13;5046543;28;20289;-86
2023/02/05 08:58:21;;;;;;;4.00;2.17;;;;;;;2.99;78.21;102762.19;5041363;28;20236;-84
2023/02/05 09:00:48;;;;;;;2.50;1.77;;;;;;;3.01;78.24;102760.56;5044803;28;20258;-85
2023/02/05 09:03:14;;;;;;;2.40;2.20;;;;;;;3.04;78.12;102765.91;5029169;28;20198;-82
2023/02/05 09:05:40;;;;;;;2.63;2.10;;;;;;;3.10;77.56;102768.78;5027822;28;20245;-83
2023/02/05 09:08:07;;;;;;;2.50;1.80;;;;;;;3.12;77.51;102784.34;5033443;28;20259;-82
2023/02/05 09:10:35;;;;;;;2.90;1.90;;;;;;;3.19;78.66;102770.91;5030482;28;20200;-83
2023/02/05 09:13:01;;;;;;;2.20;1.60;;;;;;;3.22;79.56;102742.69;5038126;28;20618;-83
2023/02/05 09:15:27;;;;;;;2.30;1.80;;;;;;;3.23;80.23;102717.75;5035180;28;20214;-81
2023/02/05 09:17:54;;;;;;;2.93;2.27;;;;;;;3.30;80.47;102692.31;5041748;28;20280;-81
2023/02/05 09:20:20;;;;;;;3.07;1.80;;;;;;;3.32;79.76;102682.06;5039527;28;20203;-82
2023/02/05 09:22:47;;;;;;;2.30;1.63;;;;;;;3.30;80.12;102687.16;5039497;28;20207;-82
2023/02/05 09:25:13;;;;;;;1.77;1.67;;;;;;;3.28;80.89;102675.88;5041065;28;20206;-82
2023/02/05 09:27:41;;;;;;;2.47;1.90;;;;;;;3.25;81.83;102657.69;5039484;28;20333;-82
2023/02/05 09:30:09;;;;;;;2.43;1.70;;;;;;;3.29;82.49;102631.22;5040182;28;20233;-81
2023/02/05 09:32:35;;;;;;;6.33;2.50;;;;;;;3.34;82.40;102616.78;5035565;28;20190;-82
2023/02/05 09:35:01;;;;;;;4.87;2.10;;;;;;;3.35;82.68;102599.59;5041159;28;20245;-82
2023/02/05 09:37:28;;;;;;;2.40;2.00;;;;;;;3.37;83.01;102573.06;5039990;28;20215;-82
2023/02/05 09:39:54;;;;;;;2.53;2.20;;;;;;;3.36;83.99;102553.22;5040331;28;20194;-82
2023/02/05 09:42:32;;;;;;;2.73;2.40;;;;;;;3.34;84.22;102530.75;5037439;28;20265;-83
2023/02/05 09:45:14;;;;;;;3.70;2.37;;;;;;;3.37;84.27;102521.44;5039942;28;20252;-82
2023/02/05 09:47:47;;;;;;;2.30;2.10;;;;;;;3.32;84.88;102515.19;5036247;28;20302;-80
2023/02/05 09:50:20;;;;;;;2.97;1.93;;;;;;;3.31;85.17;102495.34;5034930;28;20199;-80
2023/02/05 09:52:49;;;;;;;2.70;2.50;;;;;;;3.28;85.93;102481.44;5038599;28;20264;-83
2023/02/05 09:55:21;;;;;;;3.83;2.47;;;;;;;3.36;85.63;102475.78;5040214;28;20206;-83
2023/02/05 09:57:47;;;;;;;2.80;2.60;;;;;;;3.36;86.39;102478.34;5039925;28;20337;-83
2023/02/05 10:00:23;;;;;;;3.07;2.70;;;;;;;3.34;86.44;102461.91;5038249;28;20596;-85
2023/02/05 10:02:55;;;;;;;2.93;2.63;;;;;;;3.40;86.54;102458.72;5036778;28;20668;-84
2023/02/05 10:05:26;;;;;;;3.17;2.93;;;;;;;3.38;86.40;102452.63;5036884;28;20205;-84
2023/02/05 10:08:02;;;;;;;3.77;3.33;;;;;;;3.40;86.94;102457.84;5036877;28;20238;-83
2023/02/05 10:10:35;;;;;;;3.77;3.47;;;;;;;3.34;87.46;102443.84;5034544;28;20275;-85
2023/02/05 10:13:25;;;;;;;3.67;2.80;;;;;;;3.35;87.27;102424.97;5036834;28;20545;-86
2023/02/05 10:16:18;;;;;;;4.23;3.20;;;;;;;3.36;87.74;102420.69;5030209;28;20208;-86
2023/02/05 10:18:59;;;;;;;3.80;3.40;;;;;;;3.37;87.65;102423.34;5034604;28;20218;-87
2023/02/05 10:21:41;;;;;;;3.73;3.27;;;;;;;3.32;88.22;102414.50;5036098;28;20199;-86
2023/02/05 10:24:21;;;;;;;3.67;3.37;;;;;;;3.34;88.30;102406.84;5037603;28;20252;-83
2023/02/05 10:26:51;;;;;;;3.47;3.27;;;;;;;3.35;88.57;102398.25;5036956;28;20199;-87
2023/02/05 10:29:34;;;;;;;3.77;3.37;;;;;;;3.28;88.80;102379.06;5035838;28;20194;-88
2023/02/05 10:32:15;;;;;;;3.70;3.33;;;;;;;3.36;88.98;102381.97;5037508;28;20202;-84
2023/02/05 10:34:52;;;;;;;3.93;3.63;;;;;;;3.36;89.43;102375.09;5037412;28;20289;-85
2023/02/05 10:37:20;;;;;;;4.03;3.37;;;;;;;3.41;89.65;102366.66;5037050;28;20218;-85
2023/02/05 10:39:48;;;;;;;3.77;3.47;;;;;;;3.36;90.06;102351.00;5040928;28;20201;-86
2023/02/05 10:42:26;;;;;;;3.30;3.00;;;;;;;3.42;90.05;102351.25;5038918;28;20253;-87
2023/02/05 10:45:00;;;;;;;3.60;3.30;;;;;;;3.38;90.49;102352.81;5036718;28;20684;-87
2023/02/05 10:47:43;;;;;;;4.50;3.03;;;;;;;3.39;90.40;102345.97;5038700;28;20321;-88
2023/02/05 10:50:19;;;;;;;4.73;3.00;;;;;;;3.36;90.78;102341.56;5034531;28;20226;-86
2023/02/05 10:52:45;;;;;;;3.70;3.40;;;;;;;3.45;90.41;102340.16;5035242;28;20207;-87
2023/02/05 10:55:13;;;;;;;3.73;3.43;;;;;;;3.43;91.02;102347.88;5038304;28;20272;-83
2023/02/05 10:57:39;;;;;;;6.30;3.50;;;;;;;3.40;91.47;102333.94;5038646;28;20223;-84
2023/02/05 11:00:14;;;;;;;4.57;4.00;;;;;;;3.40;91.97;102328.78;5034366;28;20213;-87
2023/02/05 11:02:45;;;;;;;5.57;4.60;;;;;;;3.41;91.77;102322.78;5021708;28;20202;-86
2023/02/05 11:05:19;;;;;;;5.33;4.13;;;;;;;3.33;91.93;102320.78;5040650;28;21772;-87
2023/02/05 11:07:50;;;;;;;4.50;4.10;;;;;;;3.34;91.84;102312.22;5033053;28;20222;-85
2023/02/05 11:10:20;;;;;;;4.03;3.73;;;;;;;3.43;91.53;102324.63;5034213;28;20199;-85
2023/02/05 11:12:49;;;;;;;3.80;3.43;;;;;;;3.47;91.41;102341.09;5035542;28;20199;-84
2023/02/05 11:15:22;;;;;;;4.60;4.20;;;;;;;3.48;91.08;102342.88;5034567;28;20200;-82
2023/02/05 11:17:56;;;;;;;5.17;4.67;;;;;;;3.49;91.18;102340.38;5036385;28;20222;-84
2023/02/05 11:20:27;;;;;;;5.77;5.00;;;;;;;3.49;91.39;102347.22;5035489;28;20202;-86
2023/02/05 11:23:06;;;;;;;3.97;3.67;;;;;;;3.55;91.34;102350.06;5034441;28;20199;-86
2023/02/05 11:25:33;;;;;;;5.03;4.20;;;;;;;3.55;91.15;102355.25;5045103;28;20224;-84
2023/02/05 11:28:01;;;;;;;4.97;4.27;;;;;;;3.55;91.12;102360.41;5053247;28;20235;-83
2023/02/05 11:30:30;;;;;;;4.57;4.17;;;;;;;3.61;90.65;102370.97;5052861;28;20206;-83
2023/02/05 11:32:58;;;;;;;6.13;4.43;;;;;;;3.58;90.63;102373.41;5044930;28;20292;-83
2023/02/05 11:35:28;;;;;;;4.83;4.43;;;;;;;3.60;90.48;102384.69;5044428;28;20747;-83
2023/02/05 11:38:00;;;;;;;4.37;4.00;;;;;;;3.54;91.05;102375.00;5048737;28;20614;-84
2023/02/05 11:40:29;;;;;;;5.10;4.60;;;;;;;3.61;91.04;102367.50;5044672;28;20202;-85
2023/02/05 11:43:01;;;;;;;4.93;4.53;;;;;;;3.63;91.01;102381.34;5043648;28;20205;-84
2023/02/05 11:45:28;;;;;;;4.63;4.23;;;;;;;3.62;91.28;102377.00;5046510;28;20201;-85
2023/02/05 11:47:55;;;;;;;5.17;4.77;;;;;;;3.61;91.38;102389.06;5042190;28;20226;-84